sensor_id;sensor_type;location;lat;lon;timestamp;temperature;humidity
13892;DHT22;7016;48.172;8.058;2024-02-26T00:01:40;8.10;99.90
13892;DHT22;7016;48.172;8.058;2024-02-26T00:04:26;8.20;99.90
13892;DHT22;7016;48.172;8.058;2024-02-26T00:07:12;8.30;99.90
13892;DHT22;7016;48.172;8.058;2024-02-26T00:09:58;8.40;99.90
13892;DHT22;7016;48.172;8.058;2024-02-26T00:12:45;8.40;99.90
13892;DHT22;7016;48.172;8.058;2024-02-26T00:15:32;8.30;99.90
13892;DHT22;7016;48.172;8.058;2024-02-26T00:18:21;8.50;99.90
13892;DHT22;7016;48.172;8.058;2024-02-26T00:21:07;8.50;99.90
13892;DHT22;7016;48.172;8.058;2024-02-26T00:23:53;8.40;99.90
13892;DHT22;7016;48.172;8.058;2024-02-26T00:26:39;8.30;99.90
13892;DHT22;7016;48.172;8.058;2024-02-26T00:29:26;8.30;99.90
13892;DHT22;7016;48.172;8.058;2024-02-26T00:32:12;8.30;99.90
13892;DHT22;7016;48.172;8.058;2024-02-26T00:34:58;8.30;99.90
13892;DHT22;7016;48.172;8.058;2024-02-26T00:37:44;8.40;99.90
13892;DHT22;7016;48.172;8.058;2024-02-26T00:40:30;8.50;99.90
13892;DHT22;7016;48.172;8.058;2024-02-26T00:43:16;8.40;99.90
13892;DHT22;7016;48.172;8.058;2024-02-26T00:46:03;7.80;99.90
13892;DHT22;7016;48.172;8.058;2024-02-26T00:48:49;7.80;99.90
13892;DHT22;7016;48.172;8.058;2024-02-26T00:51:35;7.90;99.90
13892;DHT22;7016;48.172;8.058;2024-02-26T00:54:21;8.20;99.90
13892;DHT22;7016;48.172;8.058;2024-02-26T00:57:07;8.20;99.90
13892;DHT22;7016;48.172;8.058;2024-02-26T00:59:54;8.20;99.90
13892;DHT22;7016;48.172;8.058;2024-02-26T01:02:42;8.10;99.90
13892;DHT22;7016;48.172;8.058;2024-02-26T01:05:28;8.20;99.90
13892;DHT22;7016;48.172;8.058;2024-02-26T01:08:14;8.30;99.90
13892;DHT22;7016;48.172;8.058;2024-02-26T01:11:01;8.20;99.90
13892;DHT22;7016;48.172;8.058;2024-02-26T01:13:47;8.20;99.90
13892;DHT22;7016;48.172;8.058;2024-02-26T01:16:33;8.00;99.90
13892;DHT22;7016;48.172;8.058;2024-02-26T01:19:19;8.00;99.90
13892;DHT22;7016;48.172;8.058;2024-02-26T01:22:05;7.90;99.90
13892;DHT22;7016;48.172;8.058;2024-02-26T01:24:51;8.00;99.90
13892;DHT22;7016;48.172;8.058;2024-02-26T01:27:38;7.90;99.90
13892;DHT22;7016;48.172;8.058;2024-02-26T01:30:24;7.80;99.90
13892;DHT22;7016;48.172;8.058;2024-02-26T01:33:10;7.70;99.90
13892;DHT22;7016;48.172;8.058;2024-02-26T01:35:56;7.70;99.90
13892;DHT22;7016;48.172;8.058;2024-02-26T01:38:42;7.90;99.90
13892;DHT22;7016;48.172;8.058;2024-02-26T01:41:28;7.80;99.90
13892;DHT22;7016;48.172;8.058;2024-02-26T01:44:15;7.70;99.90
13892;DHT22;7016;48.172;8.058;2024-02-26T01:47:01;7.60;99.90
13892;DHT22;7016;48.172;8.058;2024-02-26T01:49:49;7.60;99.90
13892;DHT22;7016;48.172;8.058;2024-02-26T01:52:35;7.80;99.90
13892;DHT22;7016;48.172;8.058;2024-02-26T01:55:23;7.70;99.90
13892;DHT22;7016;48.172;8.058;2024-02-26T01:58:10;7.50;99.90
13892;DHT22;7016;48.172;8.058;2024-02-26T02:00:57;7.70;99.90
13892;DHT22;7016;48.172;8.058;2024-02-26T02:03:45;7.80;99.90
13892;DHT22;7016;48.172;8.058;2024-02-26T02:06:31;7.80;99.90
13892;DHT22;7016;48.172;8.058;2024-02-26T02:09:18;7.70;99.90
13892;DHT22;7016;48.172;8.058;2024-02-26T02:12:06;7.80;99.90
13892;DHT22;7016;48.172;8.058;2024-02-26T02:14:52;7.70;99.90
13892;DHT22;7016;48.172;8.058;2024-02-26T02:17:38;7.30;99.90
13892;DHT22;7016;48.172;8.058;2024-02-26T02:20:34;7.40;99.90
13892;DHT22;7016;48.172;8.058;2024-02-26T02:23:20;7.30;99.90
13892;DHT22;7016;48.172;8.058;2024-02-26T02:26:06;7.50;99.90
13892;DHT22;7016;48.172;8.058;2024-02-26T02:28:53;7.50;99.90
13892;DHT22;7016;48.172;8.058;2024-02-26T02:31:39;7.70;99.90
13892;DHT22;7016;48.172;8.058;2024-02-26T02:34:26;7.60;99.90
13892;DHT22;7016;48.172;8.058;2024-02-26T02:37:12;7.30;99.90
13892;DHT22;7016;48.172;8.058;2024-02-26T02:39:58;7.50;99.90
13892;DHT22;7016;48.172;8.058;2024-02-26T02:42:44;7.40;99.90
13892;DHT22;7016;48.172;8.058;2024-02-26T02:45:31;7.20;99.90
13892;DHT22;7016;48.172;8.058;2024-02-26T02:48:17;7.20;99.90
13892;DHT22;7016;48.172;8.058;2024-02-26T02:51:05;7.20;99.90
13892;DHT22;7016;48.172;8.058;2024-02-26T02:53:51;7.20;99.90
13892;DHT22;7016;48.172;8.058;2024-02-26T02:56:37;7.50;99.90
13892;DHT22;7016;48.172;8.058;2024-02-26T02:59:23;7.60;99.90
13892;DHT22;7016;48.172;8.058;2024-02-26T03:02:09;7.90;99.90
13892;DHT22;7016;48.172;8.058;2024-02-26T03:04:56;7.80;99.90
13892;DHT22;7016;48.172;8.058;2024-02-26T03:07:42;7.90;99.90
13892;DHT22;7016;48.172;8.058;2024-02-26T03:10:28;8.00;99.90
13892;DHT22;7016;48.172;8.058;2024-02-26T03:13:14;8.00;99.90
13892;DHT22;7016;48.172;8.058;2024-02-26T03:16:05;8.10;99.90
13892;DHT22;7016;48.172;8.058;2024-02-26T03:18:51;8.10;99.90
13892;DHT22;7016;48.172;8.058;2024-02-26T03:21:38;7.80;99.90
13892;DHT22;7016;48.172;8.058;2024-02-26T03:24:24;7.90;99.90
13892;DHT22;7016;48.172;8.058;2024-02-26T03:27:10;7.70;99.90
13892;DHT22;7016;48.172;8.058;2024-02-26T03:29:56;7.70;99.90
13892;DHT22;7016;48.172;8.058;2024-02-26T03:32:43;7.80;99.90
13892;DHT22;7016;48.172;8.058;2024-02-26T03:35:29;7.50;99.90
13892;DHT22;7016;48.172;8.058;2024-02-26T03:38:15;7.50;99.90
13892;DHT22;7016;48.172;8.058;2024-02-26T03:41:01;7.70;99.90
13892;DHT22;7016;48.172;8.058;2024-02-26T03:43:47;8.00;99.90
13892;DHT22;7016;48.172;8.058;2024-02-26T03:46:34;7.70;99.90
13892;DHT22;7016;48.172;8.058;2024-02-26T03:49:20;7.70;99.90
13892;DHT22;7016;48.172;8.058;2024-02-26T03:52:06;7.70;99.90
13892;DHT22;7016;48.172;8.058;2024-02-26T03:54:52;7.90;99.90
13892;DHT22;7016;48.172;8.058;2024-02-26T03:57:38;7.80;99.90
13892;DHT22;7016;48.172;8.058;2024-02-26T04:00:25;7.90;99.90
13892;DHT22;7016;48.172;8.058;2024-02-26T04:03:12;8.10;99.90
13892;DHT22;7016;48.172;8.058;2024-02-26T04:08:44;7.90;99.90
13892;DHT22;7016;48.172;8.058;2024-02-26T04:11:31;7.70;99.90
13892;DHT22;7016;48.172;8.058;2024-02-26T04:14:17;7.90;99.90
13892;DHT22;7016;48.172;8.058;2024-02-26T04:17:03;8.00;99.90
13892;DHT22;7016;48.172;8.058;2024-02-26T04:19:49;7.90;99.90
13892;DHT22;7016;48.172;8.058;2024-02-26T04:22:36;7.90;99.90
13892;DHT22;7016;48.172;8.058;2024-02-26T04:25:22;7.80;99.90
13892;DHT22;7016;48.172;8.058;2024-02-26T04:28:08;7.70;99.90
13892;DHT22;7016;48.172;8.058;2024-02-26T04:30:55;7.70;99.90
13892;DHT22;7016;48.172;8.058;2024-02-26T04:33:41;7.90;99.90
13892;DHT22;7016;48.172;8.058;2024-02-26T04:36:28;7.70;99.90
13892;DHT22;7016;48.172;8.058;2024-02-26T04:39:14;7.70;99.90
13892;DHT22;7016;48.172;8.058;2024-02-26T04:42:00;7.70;99.90
13892;DHT22;7016;48.172;8.058;2024-02-26T04:44:54;7.80;99.90
13892;DHT22;7016;48.172;8.058;2024-02-26T04:47:44;7.80;99.90
13892;DHT22;7016;48.172;8.058;2024-02-26T04:50:30;7.90;99.90
13892;DHT22;7016;48.172;8.058;2024-02-26T04:53:17;8.10;99.90
13892;DHT22;7016;48.172;8.058;2024-02-26T04:56:03;7.80;99.90
13892;DHT22;7016;48.172;8.058;2024-02-26T04:58:49;7.90;99.90
13892;DHT22;7016;48.172;8.058;2024-02-26T05:01:35;7.80;99.90
13892;DHT22;7016;48.172;8.058;2024-02-26T05:04:22;8.00;99.90
13892;DHT22;7016;48.172;8.058;2024-02-26T05:07:08;8.10;99.90
13892;DHT22;7016;48.172;8.058;2024-02-26T05:09:54;8.00;99.90
13892;DHT22;7016;48.172;8.058;2024-02-26T05:12:41;8.00;99.90
13892;DHT22;7016;48.172;8.058;2024-02-26T05:15:28;8.00;99.90
13892;DHT22;7016;48.172;8.058;2024-02-26T05:18:15;8.10;99.90
13892;DHT22;7016;48.172;8.058;2024-02-26T05:21:01;8.30;99.90
13892;DHT22;7016;48.172;8.058;2024-02-26T05:23:49;8.30;99.90
13892;DHT22;7016;48.172;8.058;2024-02-26T05:26:35;8.00;99.90
13892;DHT22;7016;48.172;8.058;2024-02-26T05:29:21;7.90;99.90
13892;DHT22;7016;48.172;8.058;2024-02-26T05:32:07;7.90;99.90
13892;DHT22;7016;48.172;8.058;2024-02-26T05:34:54;8.00;99.90
13892;DHT22;7016;48.172;8.058;2024-02-26T05:37:40;8.10;99.90
13892;DHT22;7016;48.172;8.058;2024-02-26T05:40:26;8.00;99.90
13892;DHT22;7016;48.172;8.058;2024-02-26T05:43:12;8.10;99.90
13892;DHT22;7016;48.172;8.058;2024-02-26T05:46:01;8.10;99.90
13892;DHT22;7016;48.172;8.058;2024-02-26T05:48:48;8.10;99.90
13892;DHT22;7016;48.172;8.058;2024-02-26T05:51:35;8.10;99.90
13892;DHT22;7016;48.172;8.058;2024-02-26T05:54:21;7.90;99.90
13892;DHT22;7016;48.172;8.058;2024-02-26T05:57:07;7.90;99.90
13892;DHT22;7016;48.172;8.058;2024-02-26T05:59:53;8.00;99.90
13892;DHT22;7016;48.172;8.058;2024-02-26T06:02:39;8.20;99.90
13892;DHT22;7016;48.172;8.058;2024-02-26T06:05:25;7.90;99.90
13892;DHT22;7016;48.172;8.058;2024-02-26T06:08:12;7.70;99.90
13892;DHT22;7016;48.172;8.058;2024-02-26T06:10:59;7.70;99.90
13892;DHT22;7016;48.172;8.058;2024-02-26T06:13:50;7.70;99.90
13892;DHT22;7016;48.172;8.058;2024-02-26T06:16:36;7.90;99.90
13892;DHT22;7016;48.172;8.058;2024-02-26T06:19:22;7.90;99.90
13892;DHT22;7016;48.172;8.058;2024-02-26T06:22:09;7.80;99.90
13892;DHT22;7016;48.172;8.058;2024-02-26T06:24:55;7.80;99.90
13892;DHT22;7016;48.172;8.058;2024-02-26T06:27:41;7.60;99.90
13892;DHT22;7016;48.172;8.058;2024-02-26T06:30:27;7.60;99.90
13892;DHT22;7016;48.172;8.058;2024-02-26T06:33:13;7.50;99.90
13892;DHT22;7016;48.172;8.058;2024-02-26T06:36:00;7.70;99.90
13892;DHT22;7016;48.172;8.058;2024-02-26T06:38:46;7.70;99.90
13892;DHT22;7016;48.172;8.058;2024-02-26T06:41:32;7.70;99.90
13892;DHT22;7016;48.172;8.058;2024-02-26T06:44:19;7.50;99.90
13892;DHT22;7016;48.172;8.058;2024-02-26T06:47:05;7.50;99.90
13892;DHT22;7016;48.172;8.058;2024-02-26T06:49:51;7.40;99.90
13892;DHT22;7016;48.172;8.058;2024-02-26T06:52:37;7.50;99.90
13892;DHT22;7016;48.172;8.058;2024-02-26T06:55:24;7.50;99.90
13892;DHT22;7016;48.172;8.058;2024-02-26T06:58:13;7.40;99.90
13892;DHT22;7016;48.172;8.058;2024-02-26T07:01:02;7.40;99.90
13892;DHT22;7016;48.172;8.058;2024-02-26T07:03:49;7.50;99.90
13892;DHT22;7016;48.172;8.058;2024-02-26T07:06:35;7.60;99.90
13892;DHT22;7016;48.172;8.058;2024-02-26T07:09:21;7.60;99.90
13892;DHT22;7016;48.172;8.058;2024-02-26T07:12:07;7.70;99.90
13892;DHT22;7016;48.172;8.058;2024-02-26T07:14:53;7.70;99.90
13892;DHT22;7016;48.172;8.058;2024-02-26T07:17:40;7.70;99.90
13892;DHT22;7016;48.172;8.058;2024-02-26T07:20:33;7.70;99.90
13892;DHT22;7016;48.172;8.058;2024-02-26T07:23:19;7.90;99.90
13892;DHT22;7016;48.172;8.058;2024-02-26T07:26:05;7.80;99.90
13892;DHT22;7016;48.172;8.058;2024-02-26T07:28:51;7.80;99.90
13892;DHT22;7016;48.172;8.058;2024-02-26T07:31:38;7.80;99.90
13892;DHT22;7016;48.172;8.058;2024-02-26T07:34:24;7.70;99.90
13892;DHT22;7016;48.172;8.058;2024-02-26T07:37:15;7.80;99.90
13892;DHT22;7016;48.172;8.058;2024-02-26T07:40:01;7.80;99.90
13892;DHT22;7016;48.172;8.058;2024-02-26T07:42:47;7.90;99.90
13892;DHT22;7016;48.172;8.058;2024-02-26T07:45:33;7.90;99.90
13892;DHT22;7016;48.172;8.058;2024-02-26T07:48:21;7.80;99.90
13892;DHT22;7016;48.172;8.058;2024-02-26T07:51:07;7.60;99.90
13892;DHT22;7016;48.172;8.058;2024-02-26T07:53:53;7.80;99.90
13892;DHT22;7016;48.172;8.058;2024-02-26T07:56:39;8.10;99.90
13892;DHT22;7016;48.172;8.058;2024-02-26T07:59:26;8.20;99.90
13892;DHT22;7016;48.172;8.058;2024-02-26T08:02:12;8.40;99.90
13892;DHT22;7016;48.172;8.058;2024-02-26T08:04:58;8.60;99.90
13892;DHT22;7016;48.172;8.058;2024-02-26T08:07:44;8.60;99.90
13892;DHT22;7016;48.172;8.058;2024-02-26T08:10:30;8.50;99.90
13892;DHT22;7016;48.172;8.058;2024-02-26T08:13:16;8.60;99.90
13892;DHT22;7016;48.172;8.058;2024-02-26T08:16:03;8.50;99.90
13892;DHT22;7016;48.172;8.058;2024-02-26T08:18:49;8.50;99.90
13892;DHT22;7016;48.172;8.058;2024-02-26T08:21:35;8.70;99.90
13892;DHT22;7016;48.172;8.058;2024-02-26T08:24:23;8.90;99.90
13892;DHT22;7016;48.172;8.058;2024-02-26T08:27:09;9.00;99.90
13892;DHT22;7016;48.172;8.058;2024-02-26T08:29:55;9.10;99.90
13892;DHT22;7016;48.172;8.058;2024-02-26T08:32:51;9.10;99.90
13892;DHT22;7016;48.172;8.058;2024-02-26T08:35:38;9.20;99.90
13892;DHT22;7016;48.172;8.058;2024-02-26T08:38:24;9.30;99.90
13892;DHT22;7016;48.172;8.058;2024-02-26T08:41:11;9.40;99.90
13892;DHT22;7016;48.172;8.058;2024-02-26T08:43:57;9.20;99.90
13892;DHT22;7016;48.172;8.058;2024-02-26T08:46:44;9.00;99.90
13892;DHT22;7016;48.172;8.058;2024-02-26T08:49:31;9.10;99.90
13892;DHT22;7016;48.172;8.058;2024-02-26T08:52:17;9.20;99.90
13892;DHT22;7016;48.172;8.058;2024-02-26T08:55:04;9.40;99.90
13892;DHT22;7016;48.172;8.058;2024-02-26T08:57:50;9.60;99.90
13892;DHT22;7016;48.172;8.058;2024-02-26T09:00:36;9.50;99.90
13892;DHT22;7016;48.172;8.058;2024-02-26T09:03:23;9.60;99.90
13892;DHT22;7016;48.172;8.058;2024-02-26T09:06:09;9.60;99.90
13892;DHT22;7016;48.172;8.058;2024-02-26T09:08:55;9.60;99.90
13892;DHT22;7016;48.172;8.058;2024-02-26T09:11:42;9.60;99.90
13892;DHT22;7016;48.172;8.058;2024-02-26T09:14:28;9.90;99.90
13892;DHT22;7016;48.172;8.058;2024-02-26T09:17:14;10.00;99.90
13892;DHT22;7016;48.172;8.058;2024-02-26T09:20:02;10.10;99.90
13892;DHT22;7016;48.172;8.058;2024-02-26T09:22:49;9.90;99.90
13892;DHT22;7016;48.172;8.058;2024-02-26T09:25:36;9.90;99.90
13892;DHT22;7016;48.172;8.058;2024-02-26T09:28:22;10.10;99.90
13892;DHT22;7016;48.172;8.058;2024-02-26T09:31:08;10.20;99.90
13892;DHT22;7016;48.172;8.058;2024-02-26T09:33:55;10.20;99.90
13892;DHT22;7016;48.172;8.058;2024-02-26T09:36:41;10.30;99.90
13892;DHT22;7016;48.172;8.058;2024-02-26T09:39:27;10.30;99.90
13892;DHT22;7016;48.172;8.058;2024-02-26T09:42:13;10.40;99.90
13892;DHT22;7016;48.172;8.058;2024-02-26T09:45:00;10.40;99.90
13892;DHT22;7016;48.172;8.058;2024-02-26T09:47:49;10.40;99.90
13892;DHT22;7016;48.172;8.058;2024-02-26T09:50:40;10.50;99.90
13892;DHT22;7016;48.172;8.058;2024-02-26T09:53:28;10.60;99.90
13892;DHT22;7016;48.172;8.058;2024-02-26T09:56:15;10.70;99.90
13892;DHT22;7016;48.172;8.058;2024-02-26T09:59:06;10.70;99.90
13892;DHT22;7016;48.172;8.058;2024-02-26T10:01:58;10.80;99.90
13892;DHT22;7016;48.172;8.058;2024-02-26T10:04:46;10.80;99.90
13892;DHT22;7016;48.172;8.058;2024-02-26T10:07:35;10.50;99.90
13892;DHT22;7016;48.172;8.058;2024-02-26T10:10:22;10.60;99.90
13892;DHT22;7016;48.172;8.058;2024-02-26T10:13:08;10.70;99.90
13892;DHT22;7016;48.172;8.058;2024-02-26T10:15:57;10.80;99.90
13892;DHT22;7016;48.172;8.058;2024-02-26T10:18:52;10.90;99.90
13892;DHT22;7016;48.172;8.058;2024-02-26T10:21:39;10.80;99.90
13892;DHT22;7016;48.172;8.058;2024-02-26T10:24:26;10.70;99.90
13892;DHT22;7016;48.172;8.058;2024-02-26T10:27:13;10.80;99.90
13892;DHT22;7016;48.172;8.058;2024-02-26T10:30:03;10.70;99.90
13892;DHT22;7016;48.172;8.058;2024-02-26T10:32:50;10.70;99.90
13892;DHT22;7016;48.172;8.058;2024-02-26T10:35:36;10.80;99.90
13892;DHT22;7016;48.172;8.058;2024-02-26T10:38:26;10.90;99.90
13892;DHT22;7016;48.172;8.058;2024-02-26T10:41:16;11.00;99.90
13892;DHT22;7016;48.172;8.058;2024-02-26T10:44:02;10.90;99.90
13892;DHT22;7016;48.172;8.058;2024-02-26T10:46:49;10.90;99.90
13892;DHT22;7016;48.172;8.058;2024-02-26T10:49:35;10.90;99.90
13892;DHT22;7016;48.172;8.058;2024-02-26T10:52:23;10.70;99.90
13892;DHT22;7016;48.172;8.058;2024-02-26T10:55:16;11.00;99.90
13892;DHT22;7016;48.172;8.058;2024-02-26T10:58:07;12.30;99.90
13892;DHT22;7016;48.172;8.058;2024-02-26T11:00:56;11.00;99.90
13892;DHT22;7016;48.172;8.058;2024-02-26T11:03:43;10.90;99.90
13892;DHT22;7016;48.172;8.058;2024-02-26T11:06:29;11.00;99.90
13892;DHT22;7016;48.172;8.058;2024-02-26T11:09:16;11.00;99.90
13892;DHT22;7016;48.172;8.058;2024-02-26T11:12:03;11.20;99.90
13892;DHT22;7016;48.172;8.058;2024-02-26T11:17:44;11.30;99.90
13892;DHT22;7016;48.172;8.058;2024-02-26T11:20:32;11.40;99.90
13892;DHT22;7016;48.172;8.058;2024-02-26T11:23:19;11.50;99.90
13892;DHT22;7016;48.172;8.058;2024-02-26T11:26:06;11.50;99.90
13892;DHT22;7016;48.172;8.058;2024-02-26T11:28:53;11.50;99.90
13892;DHT22;7016;48.172;8.058;2024-02-26T11:31:39;11.50;99.90
13892;DHT22;7016;48.172;8.058;2024-02-26T11:34:26;11.60;99.90
13892;DHT22;7016;48.172;8.058;2024-02-26T11:37:14;11.50;99.90
13892;DHT22;7016;48.172;8.058;2024-02-26T11:40:01;11.50;99.90
13892;DHT22;7016;48.172;8.058;2024-02-26T11:42:48;11.60;99.90
13892;DHT22;7016;48.172;8.058;2024-02-26T11:48:32;11.80;99.90
13892;DHT22;7016;48.172;8.058;2024-02-26T11:51:25;12.00;99.90
13892;DHT22;7016;48.172;8.058;2024-02-26T11:54:11;12.00;99.90
13892;DHT22;7016;48.172;8.058;2024-02-26T11:56:57;11.90;99.90
13892;DHT22;7016;48.172;8.058;2024-02-26T11:59:44;11.90;99.90
13892;DHT22;7016;48.172;8.058;2024-02-26T12:02:46;12.10;99.90
13892;DHT22;7016;48.172;8.058;2024-02-26T12:05:33;12.20;99.90
13892;DHT22;7016;48.172;8.058;2024-02-26T12:08:22;12.40;99.90
13892;DHT22;7016;48.172;8.058;2024-02-26T12:11:15;12.50;99.90
13892;DHT22;7016;48.172;8.058;2024-02-26T12:14:02;12.60;99.90
13892;DHT22;7016;48.172;8.058;2024-02-26T12:16:48;12.50;99.90
13892;DHT22;7016;48.172;8.058;2024-02-26T12:19:35;12.50;99.90
13892;DHT22;7016;48.172;8.058;2024-02-26T12:22:23;12.60;99.90
13892;DHT22;7016;48.172;8.058;2024-02-26T12:25:10;12.60;99.90
13892;DHT22;7016;48.172;8.058;2024-02-26T12:27:57;12.60;99.90
13892;DHT22;7016;48.172;8.058;2024-02-26T12:30:43;12.60;99.90
13892;DHT22;7016;48.172;8.058;2024-02-26T12:33:30;12.70;99.90
13892;DHT22;7016;48.172;8.058;2024-02-26T12:36:16;12.80;99.90
13892;DHT22;7016;48.172;8.058;2024-02-26T12:39:03;12.80;99.90
13892;DHT22;7016;48.172;8.058;2024-02-26T12:41:52;12.90;99.90
13892;DHT22;7016;48.172;8.058;2024-02-26T12:44:38;12.90;99.90
13892;DHT22;7016;48.172;8.058;2024-02-26T12:47:24;12.90;99.90
13892;DHT22;7016;48.172;8.058;2024-02-26T12:50:11;13.00;99.90
13892;DHT22;7016;48.172;8.058;2024-02-26T12:52:57;13.10;99.90
13892;DHT22;7016;48.172;8.058;2024-02-26T12:55:44;13.20;99.90
13892;DHT22;7016;48.172;8.058;2024-02-26T12:58:31;13.00;99.90
13892;DHT22;7016;48.172;8.058;2024-02-26T13:01:21;12.80;99.90
13892;DHT22;7016;48.172;8.058;2024-02-26T13:04:09;12.90;99.90
13892;DHT22;7016;48.172;8.058;2024-02-26T13:06:56;13.10;99.90
13892;DHT22;7016;48.172;8.058;2024-02-26T13:09:48;13.10;99.90
13892;DHT22;7016;48.172;8.058;2024-02-26T13:12:34;13.00;99.90
13892;DHT22;7016;48.172;8.058;2024-02-26T13:15:21;13.10;99.90
13892;DHT22;7016;48.172;8.058;2024-02-26T13:18:15;13.10;99.90
13892;DHT22;7016;48.172;8.058;2024-02-26T13:21:12;13.30;99.90
13892;DHT22;7016;48.172;8.058;2024-02-26T13:23:59;13.20;99.90
13892;DHT22;7016;48.172;8.058;2024-02-26T13:26:45;13.10;99.90
13892;DHT22;7016;48.172;8.058;2024-02-26T13:29:31;13.10;99.90
13892;DHT22;7016;48.172;8.058;2024-02-26T13:32:17;13.10;99.90
13892;DHT22;7016;48.172;8.058;2024-02-26T13:35:11;13.20;99.90
13892;DHT22;7016;48.172;8.058;2024-02-26T13:37:58;13.40;99.90
13892;DHT22;7016;48.172;8.058;2024-02-26T13:40:44;13.40;99.90
13892;DHT22;7016;48.172;8.058;2024-02-26T13:43:30;13.40;99.90
13892;DHT22;7016;48.172;8.058;2024-02-26T13:46:16;13.40;99.90
13892;DHT22;7016;48.172;8.058;2024-02-26T13:49:03;13.40;99.90
13892;DHT22;7016;48.172;8.058;2024-02-26T13:51:49;13.40;99.90
13892;DHT22;7016;48.172;8.058;2024-02-26T13:54:35;13.40;99.90
13892;DHT22;7016;48.172;8.058;2024-02-26T13:57:24;13.20;99.90
13892;DHT22;7016;48.172;8.058;2024-02-26T14:00:10;13.20;99.90
13892;DHT22;7016;48.172;8.058;2024-02-26T14:02:58;13.30;99.90
13892;DHT22;7016;48.172;8.058;2024-02-26T14:05:44;13.40;99.90
13892;DHT22;7016;48.172;8.058;2024-02-26T14:08:31;13.40;99.90
13892;DHT22;7016;48.172;8.058;2024-02-26T14:11:17;13.30;99.90
13892;DHT22;7016;48.172;8.058;2024-02-26T14:14:03;13.40;99.90
13892;DHT22;7016;48.172;8.058;2024-02-26T14:16:49;13.60;99.90
13892;DHT22;7016;48.172;8.058;2024-02-26T14:19:35;13.70;99.90
13892;DHT22;7016;48.172;8.058;2024-02-26T14:22:21;13.70;99.90
13892;DHT22;7016;48.172;8.058;2024-02-26T14:25:08;13.60;99.90
13892;DHT22;7016;48.172;8.058;2024-02-26T14:27:55;13.40;99.90
13892;DHT22;7016;48.172;8.058;2024-02-26T14:30:41;13.30;99.90
13892;DHT22;7016;48.172;8.058;2024-02-26T14:33:27;13.40;99.90
13892;DHT22;7016;48.172;8.058;2024-02-26T14:36:14;13.50;99.90
13892;DHT22;7016;48.172;8.058;2024-02-26T14:39:00;13.50;99.90
13892;DHT22;7016;48.172;8.058;2024-02-26T14:41:46;13.50;99.90
13892;DHT22;7016;48.172;8.058;2024-02-26T14:44:33;13.40;99.90
13892;DHT22;7016;48.172;8.058;2024-02-26T14:47:19;13.30;99.90
13892;DHT22;7016;48.172;8.058;2024-02-26T14:50:05;13.30;99.90
13892;DHT22;7016;48.172;8.058;2024-02-26T14:52:51;13.40;99.90
13892;DHT22;7016;48.172;8.058;2024-02-26T14:55:38;13.20;99.90
13892;DHT22;7016;48.172;8.058;2024-02-26T14:58:24;13.20;99.90
13892;DHT22;7016;48.172;8.058;2024-02-26T15:01:10;13.30;99.90
13892;DHT22;7016;48.172;8.058;2024-02-26T15:03:57;13.30;99.90
13892;DHT22;7016;48.172;8.058;2024-02-26T15:06:43;13.30;99.90
13892;DHT22;7016;48.172;8.058;2024-02-26T15:09:30;13.30;99.90
13892;DHT22;7016;48.172;8.058;2024-02-26T15:12:16;13.00;99.90
13892;DHT22;7016;48.172;8.058;2024-02-26T15:15:04;13.00;99.90
13892;DHT22;7016;48.172;8.058;2024-02-26T15:17:50;13.00;99.90
13892;DHT22;7016;48.172;8.058;2024-02-26T15:20:37;13.00;99.90
13892;DHT22;7016;48.172;8.058;2024-02-26T15:23:27;12.80;99.90
13892;DHT22;7016;48.172;8.058;2024-02-26T15:26:14;12.80;99.90
13892;DHT22;7016;48.172;8.058;2024-02-26T15:29:00;12.90;99.90
13892;DHT22;7016;48.172;8.058;2024-02-26T15:31:47;12.90;99.90
13892;DHT22;7016;48.172;8.058;2024-02-26T15:34:33;12.80;99.90
13892;DHT22;7016;48.172;8.058;2024-02-26T15:37:19;13.00;99.90
13892;DHT22;7016;48.172;8.058;2024-02-26T15:40:06;12.90;99.90
13892;DHT22;7016;48.172;8.058;2024-02-26T15:42:52;12.90;99.90
13892;DHT22;7016;48.172;8.058;2024-02-26T15:45:39;13.00;99.90
13892;DHT22;7016;48.172;8.058;2024-02-26T15:48:25;13.00;99.90
13892;DHT22;7016;48.172;8.058;2024-02-26T15:51:22;13.00;99.90
13892;DHT22;7016;48.172;8.058;2024-02-26T15:54:10;12.90;99.90
13892;DHT22;7016;48.172;8.058;2024-02-26T15:56:56;12.90;99.90
13892;DHT22;7016;48.172;8.058;2024-02-26T15:59:42;12.90;99.90
13892;DHT22;7016;48.172;8.058;2024-02-26T16:02:28;13.00;99.90
13892;DHT22;7016;48.172;8.058;2024-02-26T16:05:15;13.00;99.90
13892;DHT22;7016;48.172;8.058;2024-02-26T16:08:17;13.10;99.90
13892;DHT22;7016;48.172;8.058;2024-02-26T16:11:06;13.10;99.90
13892;DHT22;7016;48.172;8.058;2024-02-26T16:17:25;12.90;99.90
13892;DHT22;7016;48.172;8.058;2024-02-26T16:20:18;12.80;99.90
13892;DHT22;7016;48.172;8.058;2024-02-26T16:23:06;12.80;99.90
13892;DHT22;7016;48.172;8.058;2024-02-26T16:25:53;12.90;99.90
13892;DHT22;7016;48.172;8.058;2024-02-26T16:28:40;12.80;99.90
13892;DHT22;7016;48.172;8.058;2024-02-26T16:31:26;12.70;99.90
13892;DHT22;7016;48.172;8.058;2024-02-26T16:34:12;12.80;99.90
13892;DHT22;7016;48.172;8.058;2024-02-26T16:36:58;12.80;99.90
13892;DHT22;7016;48.172;8.058;2024-02-26T16:39:45;12.70;99.90
13892;DHT22;7016;48.172;8.058;2024-02-26T16:42:31;12.60;99.90
13892;DHT22;7016;48.172;8.058;2024-02-26T16:45:18;12.80;99.90
13892;DHT22;7016;48.172;8.058;2024-02-26T16:48:04;12.70;99.90
13892;DHT22;7016;48.172;8.058;2024-02-26T16:50:51;12.70;99.90
13892;DHT22;7016;48.172;8.058;2024-02-26T16:53:37;12.70;99.90
13892;DHT22;7016;48.172;8.058;2024-02-26T16:56:23;12.80;99.90
13892;DHT22;7016;48.172;8.058;2024-02-26T16:59:09;12.80;99.90
13892;DHT22;7016;48.172;8.058;2024-02-26T17:01:56;12.70;99.90
13892;DHT22;7016;48.172;8.058;2024-02-26T17:04:42;12.70;99.90
13892;DHT22;7016;48.172;8.058;2024-02-26T17:07:28;12.50;99.90
13892;DHT22;7016;48.172;8.058;2024-02-26T17:10:14;12.50;99.90
13892;DHT22;7016;48.172;8.058;2024-02-26T17:13:03;12.40;99.90
13892;DHT22;7016;48.172;8.058;2024-02-26T17:15:49;12.50;99.90
13892;DHT22;7016;48.172;8.058;2024-02-26T17:18:35;12.50;99.90
13892;DHT22;7016;48.172;8.058;2024-02-26T17:21:22;12.50;99.90
13892;DHT22;7016;48.172;8.058;2024-02-26T17:24:08;12.40;99.90
13892;DHT22;7016;48.172;8.058;2024-02-26T17:26:55;12.30;99.90
13892;DHT22;7016;48.172;8.058;2024-02-26T17:29:41;12.30;99.90
13892;DHT22;7016;48.172;8.058;2024-02-26T17:32:27;12.40;99.90
13892;DHT22;7016;48.172;8.058;2024-02-26T17:35:13;12.30;99.90
13892;DHT22;7016;48.172;8.058;2024-02-26T17:38:01;12.20;99.90
13892;DHT22;7016;48.172;8.058;2024-02-26T17:40:48;12.20;99.90
13892;DHT22;7016;48.172;8.058;2024-02-26T17:43:37;12.20;99.90
13892;DHT22;7016;48.172;8.058;2024-02-26T17:46:23;12.00;99.90
13892;DHT22;7016;48.172;8.058;2024-02-26T17:49:09;12.00;99.90
13892;DHT22;7016;48.172;8.058;2024-02-26T17:51:55;11.90;99.90
13892;DHT22;7016;48.172;8.058;2024-02-26T17:54:42;11.90;99.90
13892;DHT22;7016;48.172;8.058;2024-02-26T17:57:29;12.00;99.90
13892;DHT22;7016;48.172;8.058;2024-02-26T18:00:15;12.00;99.90
13892;DHT22;7016;48.172;8.058;2024-02-26T18:03:06;12.00;99.90
13892;DHT22;7016;48.172;8.058;2024-02-26T18:05:53;11.80;99.90
13892;DHT22;7016;48.172;8.058;2024-02-26T18:08:39;11.80;99.90
13892;DHT22;7016;48.172;8.058;2024-02-26T18:11:25;11.70;99.90
13892;DHT22;7016;48.172;8.058;2024-02-26T18:14:11;11.60;99.90